Plainfield, NJ (07061)

10:39 AM EDT on April 25, 2017 (GMT -0400)
Fire Station #161 | | Change Station

Elev 144 ft 40.65 °N, 74.40 °W | Updated 1 second ago

Overcast
Overcast
51.5 °F
Feels Like 51.5 °F
N
9.0
Wind Variable Wind from NE
Gusts 21.0 mph

Today
High -- | Low -- °F
--% Chance of Precip.
Yesterday
High -- | Low -- °F
Precip. -- in
Pressure 30.09 in
Visibility 4.0 miles
Clouds Overcast 1000 ft
Dew Point 50 °F
Humidity 93%
Rainfall 0.07 in
Snow Depth Not available.
6:04 AM 7:47 PM
Waning Crescent, 1% visible
METAR KLDJ 251435Z AUTO 08010G16KT 4SM BR OVC010 12/10 A3009 RMK AO2 P0001 T01160101
Pressure 30.09 in
Visibility 4.0 miles
Clouds Overcast 1000 ft
Dew Point 50 °F
Humidity 93%
Rainfall 0.07 in
Snow Depth Not available.
6:04 AM 7:47 PM
Waning Crescent, 1% visible
METAR KLDJ 251435Z AUTO 08010G16KT 4SM BR OVC010 12/10 A3009 RMK AO2 P0001 T01160101

Get Severe Weather Alerts

Thanks for signing up!

Be on the lookout for a verification email in your inbox.

You'll start receiving the daily forecast at 8 AM.

×

10-Day Weather Forecast

Almanac

Astronomy

Apr. 25, 2017 Rise Set
Actual Time
Civil Twilight
Nautical Twilight
Astronomical Twilight
Moon
Length of Visible Light
Length of Day
Tomorrow will be .
, % of the Moon is Illuminated

Today's Extremes

State Highs State Lows

Community

WunderPhotos

WunderBlog® & News

Nearby

Air Quality

  Air Quality AQ Index Pollutant
Not available.

Snow Depth

Station Depth Elevation

Earthquake Activity

City Distance Mag. Time & Date
Minimum magnitude displayed is 2.5.

Coastal Water Temperatures

Place Temperature

Stations

Nearby Weather Stations

Station Location Temp. Windchill Dew Point Humidity Wind Precip. Elev Updated Type
                   

Watches & Warnings

There are currently no watches in effect.